createdAt,value
2017-12-15T14:19:36.283Z,98735.19
2017-12-15T14:20:08.816Z,98739.45
2017-12-15T14:20:41.311Z,98738.63
2017-12-15T14:21:13.796Z,98738.58
2017-12-15T14:21:47.651Z,98744.36
2017-12-15T14:22:22.085Z,98737.63
2017-12-15T14:22:55.147Z,98734.64
2017-12-15T14:23:28.827Z,98731.52
2017-12-15T14:24:01.544Z,98735.56
2017-12-15T14:24:34.075Z,98736.58
2017-12-15T14:25:06.591Z,98733.38
2017-12-15T14:25:39.086Z,98735.63
2017-12-15T14:26:11.569Z,98738.68
2017-12-15T14:26:45.824Z,98740.92
2017-12-15T14:27:18.308Z,98740.81
2017-12-15T14:27:50.809Z,98750.23
2017-12-15T14:28:23.307Z,98746.56
2017-12-15T14:28:56.144Z,98747.11
2017-12-15T14:29:28.627Z,98748.47
2017-12-15T14:30:01.125Z,98746.12
2017-12-15T14:30:33.635Z,98742.41
2017-12-15T14:31:06.164Z,98751.31
2017-12-15T14:31:39.064Z,98745.94
2017-12-15T14:32:11.764Z,98753.15
2017-12-15T14:32:51.941Z,98754.55
2017-12-15T14:33:24.773Z,98754.75
2017-12-15T14:33:57.247Z,98751.45
2017-12-15T14:34:29.755Z,98753.16
2017-12-15T14:35:02.251Z,98750.29
2017-12-15T14:35:34.746Z,98749.92
2017-12-15T14:36:08.012Z,98758.31
2017-12-15T14:36:40.687Z,98757.11
2017-12-15T14:37:13.722Z,98757.11
2017-12-15T14:37:46.254Z,98761.33
2017-12-15T14:38:18.831Z,98761.33
2017-12-15T14:38:51.311Z,98759.70
2017-12-15T14:39:23.815Z,98760.95
2017-12-15T14:39:56.294Z,98761.39
2017-12-15T14:40:28.790Z,98760.97
2017-12-15T14:41:01.266Z,98767.30
2017-12-15T14:41:33.766Z,98763.53
2017-12-15T14:42:06.332Z,98764.42
2017-12-15T14:42:39.130Z,98763.63
2017-12-15T14:43:12.177Z,98767.42
2017-12-15T14:43:45.865Z,98770.38
2017-12-15T14:44:18.819Z,98766.66
2017-12-15T14:44:51.348Z,98770.42
2017-12-15T14:45:23.862Z,98767.55
2017-12-15T14:45:56.338Z,98773.42
2017-12-15T14:46:28.815Z,98772.22
2017-12-15T14:47:01.334Z,98772.66
2017-12-15T14:47:33.875Z,98769.34
2017-12-15T14:48:06.426Z,98773.56
2017-12-15T14:48:43.908Z,98773.13
2017-12-15T14:49:13.335Z,98774.00
2017-12-15T14:51:46.035Z,98779.46
2017-12-15T14:54:18.642Z,98787.77
2017-12-15T14:56:51.212Z,98792.11
2017-12-15T14:59:23.753Z,98793.89
2017-12-15T15:01:56.256Z,98798.52
2017-12-15T15:04:28.748Z,98804.41
2017-12-15T15:07:01.259Z,98813.22
2017-12-15T15:09:33.765Z,98817.55
2017-12-15T15:12:06.371Z,98823.45
2017-12-15T15:14:39.166Z,98827.21
2017-12-15T15:17:11.887Z,98838.56
2017-12-15T15:19:44.478Z,98829.38
2017-12-15T15:22:17.056Z,98832.38
2017-12-15T15:24:49.713Z,98828.69
2017-12-15T15:27:22.319Z,98833.00
2017-12-15T15:29:55.012Z,98832.66
2017-12-15T15:32:27.511Z,98836.09
2017-12-15T15:35:01.500Z,98839.09
2017-12-15T15:37:34.015Z,98840.43
2017-12-15T15:40:06.610Z,98847.98
2017-12-15T15:42:39.387Z,98845.49
2017-12-15T15:45:12.360Z,98849.70
2017-12-15T15:47:45.239Z,98854.79
2017-12-15T15:50:17.854Z,98853.62
2017-12-15T15:52:50.512Z,98847.80
2017-12-15T15:55:23.268Z,98862.42
2017-12-15T15:57:55.873Z,98863.23
2017-12-15T16:00:29.450Z,98871.62
2017-12-15T16:03:02.040Z,98876.70
2017-12-15T16:05:34.571Z,98867.52
2017-12-15T16:08:07.475Z,98875.90
2017-12-15T16:10:40.938Z,98884.70
2017-12-15T16:13:13.588Z,98882.27
2017-12-15T16:15:46.222Z,98890.27
2017-12-15T16:18:18.888Z,98887.35
2017-12-15T16:20:51.563Z,98898.16
2017-12-15T16:23:24.434Z,98892.67
2017-12-15T16:25:56.911Z,98895.14
2017-12-15T16:28:29.437Z,98897.23
2017-12-15T16:31:01.929Z,98899.77
2017-12-15T16:33:34.439Z,98902.28
2017-12-15T16:36:06.950Z,98898.94
2017-12-15T16:38:40.712Z,98902.29
2017-12-15T16:41:13.871Z,98906.94
2017-12-15T16:43:46.551Z,98910.28
2017-12-15T16:46:19.660Z,98913.23
2017-12-15T16:48:52.364Z,98918.25
2017-12-15T16:51:25.019Z,98921.60
2017-12-15T16:53:57.531Z,98916.94
2017-12-15T16:56:30.015Z,98915.25
2017-12-15T16:59:02.528Z,98914.42
2017-12-15T17:01:35.008Z,98917.78
2017-12-15T17:04:08.313Z,98916.55
2017-12-15T17:06:41.209Z,98922.88
2017-12-15T17:09:14.581Z,98919.54
2017-12-15T17:11:47.217Z,98922.04
2017-12-15T17:14:19.834Z,98927.11
2017-12-15T17:16:52.351Z,98931.70
2017-12-15T17:19:24.857Z,98932.53
2017-12-15T17:21:57.347Z,98932.95
2017-12-15T17:24:29.937Z,98938.81
2017-12-15T17:27:02.432Z,98938.41
2017-12-15T17:29:35.040Z,98941.37
2017-12-15T17:32:07.675Z,98946.77
2017-12-15T17:34:41.022Z,98946.77
2017-12-15T17:37:13.772Z,98953.02
2017-12-15T17:39:46.621Z,98959.69
2017-12-15T17:42:19.313Z,98958.86
2017-12-15T17:44:51.949Z,98953.86
2017-12-15T17:47:24.453Z,98959.70
2017-12-15T17:49:56.964Z,98970.16
2017-12-15T17:52:29.452Z,98960.09
2017-12-15T17:55:01.960Z,98968.88
2017-12-15T17:57:34.440Z,98972.22
2017-12-15T18:00:07.109Z,98971.02
2017-12-15T18:02:40.232Z,98975.64
2017-12-15T18:05:13.240Z,98972.72
2017-12-15T18:07:45.921Z,98969.38
2017-12-15T18:10:18.521Z,98966.89
2017-12-15T18:12:51.089Z,98981.94
2017-12-15T18:15:23.760Z,98979.05
2017-12-15T18:17:56.299Z,98983.66
2017-12-15T18:20:28.816Z,98990.35
2017-12-15T18:23:02.256Z,98994.95
2017-12-15T18:25:34.770Z,98998.72
2017-12-15T18:28:09.233Z,98994.96
2017-12-15T18:30:41.775Z,99002.87
2017-12-15T18:33:14.256Z,99004.13
2017-12-15T18:35:46.766Z,98999.95
2017-12-15T18:38:19.312Z,99005.40
2017-12-15T18:40:51.873Z,99005.41
2017-12-15T18:43:24.371Z,99012.91
2017-12-15T18:45:56.893Z,99011.25
2017-12-15T18:48:29.399Z,99013.74
2017-12-15T18:51:01.905Z,99016.65
2017-12-15T18:53:34.391Z,99024.19
2017-12-15T18:56:06.966Z,99026.69
2017-12-15T18:58:39.503Z,99028.36
2017-12-15T19:01:12.011Z,99035.06
2017-12-15T19:03:44.505Z,99037.12
2017-12-15T19:06:17.064Z,99037.95
2017-12-15T19:08:49.569Z,99035.44
2017-12-15T19:11:22.083Z,99042.99
2017-12-15T19:13:54.620Z,99040.87
2017-12-15T19:16:27.863Z,99043.00
2017-12-15T19:19:00.389Z,99047.17
2017-12-15T19:21:32.900Z,99049.67
2017-12-15T19:24:05.386Z,99049.24
2017-12-15T19:26:40.272Z,99044.67
2017-12-15T19:29:12.831Z,99055.55
2017-12-15T19:31:45.774Z,99062.22
2017-12-15T19:34:18.284Z,99074.33
2017-12-15T19:36:50.809Z,99081.02
2017-12-15T19:39:23.290Z,99079.37
2017-12-15T19:41:55.815Z,99074.77
2017-12-15T19:44:28.326Z,99077.26
2017-12-15T19:47:00.982Z,99080.62
2017-12-15T19:49:33.608Z,99076.44
2017-12-15T19:52:06.140Z,99082.28
2017-12-15T19:54:38.647Z,99080.20
2017-12-15T19:57:11.159Z,99085.62
2017-12-15T19:59:43.653Z,99086.03
2017-12-15T20:02:16.163Z,99088.13
2017-12-15T20:04:49.253Z,99088.95
2017-12-15T20:07:21.771Z,99093.16
2017-12-15T20:09:54.259Z,99090.63
2017-12-15T20:12:26.783Z,99100.25
2017-12-15T20:14:59.270Z,99087.71
2017-12-15T20:17:31.770Z,99098.16
2017-12-15T20:20:04.277Z,99090.64
2017-12-15T20:22:39.395Z,99087.70
2017-12-15T20:25:11.882Z,99085.18
2017-12-15T20:27:44.387Z,99089.37
2017-12-15T20:30:16.871Z,99090.22
2017-12-15T20:32:49.431Z,99088.95
2017-12-15T20:35:21.929Z,99091.88
2017-12-15T20:37:54.444Z,99100.22
2017-12-15T20:40:26.911Z,99101.08
2017-12-15T20:42:59.431Z,99102.75
2017-12-15T20:45:31.997Z,99104.42
2017-12-15T20:48:04.575Z,99104.84
2017-12-15T20:50:37.352Z,99104.03
2017-12-15T20:53:09.918Z,99106.95
2017-12-15T20:55:42.423Z,99104.02
2017-12-15T20:58:15.091Z,99102.78
2017-12-15T21:00:48.655Z,99104.43
2017-12-15T21:03:21.256Z,99101.09
2017-12-15T21:05:53.934Z,99095.23
2017-12-15T21:08:26.575Z,99096.49
2017-12-15T21:10:59.834Z,99107.80
2017-12-15T21:13:32.516Z,99099.84
2017-12-15T21:16:05.024Z,99104.84
2017-12-15T21:18:39.713Z,99109.86
2017-12-15T21:21:13.147Z,99105.27
2017-12-15T21:23:45.880Z,99112.78
2017-12-15T21:26:18.643Z,99111.11
2017-12-15T21:28:51.212Z,99111.11
2017-12-15T21:31:25.056Z,99106.09
2017-12-15T21:33:59.244Z,99106.92
2017-12-15T21:36:31.788Z,99111.91
2017-12-15T21:39:04.567Z,99110.68
2017-12-15T21:41:38.660Z,99118.18
2017-12-15T21:44:11.159Z,99116.95
2017-12-15T21:46:43.639Z,99120.73
2017-12-15T21:49:16.588Z,99122.81
2017-12-15T21:51:49.355Z,99126.17
2017-12-15T21:54:22.250Z,99133.29
2017-12-15T21:56:54.768Z,99137.88
2017-12-15T21:59:27.276Z,99135.36
2017-12-15T22:01:59.758Z,99132.44
2017-12-15T22:04:32.274Z,99139.13
2017-12-15T22:07:04.764Z,99140.80
2017-12-15T22:09:37.493Z,99139.13
2017-12-15T22:12:09.976Z,99142.88
2017-12-15T22:14:42.475Z,99142.88
2017-12-15T22:17:14.966Z,99144.12
2017-12-15T22:19:47.467Z,99142.48
2017-12-15T22:22:19.952Z,99147.06
2017-12-15T22:24:52.569Z,99144.98
2017-12-15T22:27:25.744Z,99147.05
2017-12-15T22:29:58.292Z,99141.20
2017-12-15T22:32:30.768Z,99144.53
2017-12-15T22:35:03.331Z,99149.16
2017-12-15T22:37:35.809Z,99155.00
2017-12-15T22:40:08.310Z,99154.57
2017-12-15T22:42:40.791Z,99161.70
2017-12-15T22:45:13.408Z,99166.70
2017-12-15T22:47:45.884Z,99176.34
2017-12-15T22:50:18.396Z,99184.72
2017-12-15T22:52:50.872Z,99188.91
2017-12-15T22:55:23.383Z,99188.07
2017-12-15T22:57:55.877Z,99183.04
2017-12-15T23:00:28.376Z,99185.56
2017-12-15T23:03:00.855Z,99183.88
2017-12-15T23:05:33.364Z,99188.06
2017-12-15T23:08:05.848Z,99185.56
2017-12-15T23:10:38.347Z,99182.61
2017-12-15T23:13:10.828Z,99176.77
2017-12-15T23:15:43.332Z,99169.23
2017-12-15T23:18:15.815Z,99176.78
2017-12-15T23:20:48.320Z,99173.84
2017-12-15T23:23:20.800Z,99176.36
2017-12-15T23:25:53.348Z,99176.77
2017-12-15T23:28:25.828Z,99179.26
2017-12-15T23:30:58.803Z,99185.97
2017-12-15T23:33:31.302Z,99190.98
2017-12-15T23:36:03.799Z,99192.67
2017-12-15T23:38:36.282Z,99191.82
2017-12-15T23:41:11.464Z,99180.95
2017-12-15T23:43:43.947Z,99179.69
2017-12-15T23:46:16.451Z,99174.24
2017-12-15T23:48:48.931Z,99176.77
2017-12-15T23:51:21.453Z,99174.25
2017-12-15T23:53:53.994Z,99193.08
2017-12-15T23:56:38.265Z,99193.91
2017-12-15T23:59:10.866Z,99203.13
